createdAt,value
2023-02-18T00:00:29.066Z,4.97
2023-02-18T00:01:00.567Z,5.47
2023-02-18T00:01:32.240Z,3.80
2023-02-18T00:02:04.616Z,5.07
2023-02-18T00:02:36.026Z,5.90
2023-02-18T00:03:07.410Z,4.65
2023-02-18T00:03:38.770Z,5.47
2023-02-18T00:04:10.165Z,5.35
2023-02-18T00:04:41.523Z,4.95
2023-02-18T00:05:13.517Z,4.63
2023-02-18T00:05:44.976Z,5.25
2023-02-18T00:06:21.981Z,5.13
2023-02-18T00:06:53.295Z,4.68
2023-02-18T00:07:24.712Z,5.85
2023-02-18T00:07:56.059Z,4.40
2023-02-18T00:08:27.377Z,4.55
2023-02-18T00:08:59.182Z,5.50
2023-02-18T00:09:30.520Z,4.90
2023-02-18T00:10:01.859Z,4.72
2023-02-18T00:10:33.219Z,5.38
2023-02-18T00:11:07.420Z,5.00
2023-02-18T00:11:38.761Z,6.32
2023-02-18T00:12:10.094Z,4.47
2023-02-18T00:12:41.719Z,5.05
2023-02-18T00:13:13.333Z,5.18
2023-02-18T00:13:49.576Z,4.68
2023-02-18T00:14:20.959Z,6.13
2023-02-18T00:14:52.347Z,4.60
2023-02-18T00:15:23.686Z,8.10
2023-02-18T00:15:55.029Z,5.22
2023-02-18T00:16:27.641Z,6.38
2023-02-18T00:16:58.990Z,6.55
2023-02-18T00:17:30.430Z,5.80
2023-02-18T00:18:01.856Z,5.50
2023-02-18T00:18:33.242Z,4.72
2023-02-18T00:19:05.824Z,5.95
2023-02-18T00:19:37.174Z,4.75
2023-02-18T00:20:08.694Z,5.60
2023-02-18T00:20:40.072Z,7.28
2023-02-18T00:21:11.424Z,6.07
2023-02-18T00:21:42.858Z,4.07
2023-02-18T00:22:14.201Z,7.32
2023-02-18T00:22:45.554Z,5.82
2023-02-18T00:23:16.900Z,6.13
2023-02-18T00:23:48.249Z,6.03
2023-02-18T00:24:19.598Z,5.78
2023-02-18T00:24:51.204Z,6.72
2023-02-18T00:25:22.543Z,7.55
2023-02-18T00:26:04.192Z,8.07
2023-02-18T00:26:35.785Z,6.38
2023-02-18T00:27:07.385Z,6.75
2023-02-18T00:27:38.729Z,8.53
2023-02-18T00:28:10.059Z,5.63
2023-02-18T00:28:41.577Z,6.95
2023-02-18T00:29:12.945Z,7.28
2023-02-18T00:29:44.394Z,6.35
2023-02-18T00:30:15.772Z,7.40
2023-02-18T00:30:47.221Z,6.70
2023-02-18T00:31:20.079Z,7.15
2023-02-18T00:31:51.659Z,5.28
2023-02-18T00:32:23.057Z,6.53
2023-02-18T00:32:54.383Z,5.25
2023-02-18T00:33:25.811Z,6.63
2023-02-18T00:33:57.976Z,6.75
2023-02-18T00:34:29.292Z,5.88
2023-02-18T00:35:00.626Z,7.25
2023-02-18T00:35:31.985Z,6.57
2023-02-18T00:36:04.250Z,6.68
2023-02-18T00:36:35.730Z,7.40
2023-02-18T00:37:07.076Z,5.93
2023-02-18T00:37:38.399Z,5.90
2023-02-18T00:38:09.750Z,6.70
2023-02-18T00:38:44.834Z,7.63
2023-02-18T00:39:16.284Z,5.25
2023-02-18T00:39:47.607Z,5.70
2023-02-18T00:40:19.948Z,6.20
2023-02-18T00:40:51.276Z,5.65
2023-02-18T00:41:23.524Z,6.55
2023-02-18T00:41:54.854Z,5.55
2023-02-18T00:42:26.157Z,6.38
2023-02-18T00:42:57.484Z,5.47
2023-02-18T00:43:29.083Z,5.05
2023-02-18T00:44:00.456Z,5.32
2023-02-18T00:44:31.790Z,4.70
2023-02-18T00:45:03.180Z,6.97
2023-02-18T00:45:34.506Z,4.68
2023-02-18T00:46:06.203Z,5.63
2023-02-18T00:46:38.128Z,5.55
2023-02-18T00:47:09.492Z,4.97
2023-02-18T00:47:40.873Z,5.60
2023-02-18T00:48:12.229Z,5.95
2023-02-18T00:48:43.649Z,7.05
2023-02-18T00:49:15.071Z,4.10
2023-02-18T00:49:46.425Z,5.30
2023-02-18T00:50:17.763Z,3.95
2023-02-18T00:50:49.080Z,4.30
2023-02-18T00:51:20.496Z,4.25
2023-02-18T00:51:51.823Z,6.22
2023-02-18T00:52:23.157Z,4.85
2023-02-18T00:52:54.487Z,5.70
2023-02-18T00:53:25.821Z,5.30
2023-02-18T00:53:57.176Z,5.40
2023-02-18T00:54:28.544Z,4.00
2023-02-18T00:54:59.867Z,5.13
2023-02-18T00:55:31.204Z,4.30
2023-02-18T00:56:02.811Z,6.72
2023-02-18T00:56:34.233Z,6.03
2023-02-18T00:57:05.568Z,6.15
2023-02-18T00:57:36.906Z,5.40
2023-02-18T00:58:08.268Z,6.55
2023-02-18T00:58:39.581Z,5.45
2023-02-18T00:59:10.920Z,4.85
2023-02-18T00:59:42.254Z,4.13
2023-02-18T01:00:13.778Z,6.85
2023-02-18T01:00:45.383Z,4.82
2023-02-18T01:01:16.801Z,6.93
2023-02-18T01:01:48.202Z,3.95
2023-02-18T01:02:19.565Z,4.88
2023-02-18T01:02:51.275Z,4.87
2023-02-18T01:03:22.726Z,5.65
2023-02-18T01:03:54.071Z,4.68
2023-02-18T01:04:25.447Z,6.38
2023-02-18T01:04:56.985Z,6.60
2023-02-18T01:05:28.406Z,4.45
2023-02-18T01:06:00.008Z,4.05
2023-02-18T01:06:31.422Z,6.30
2023-02-18T01:07:02.781Z,4.38
2023-02-18T01:07:34.149Z,5.22
2023-02-18T01:08:05.984Z,5.00
2023-02-18T01:08:37.792Z,6.57
2023-02-18T01:09:09.941Z,3.85
2023-02-18T01:09:41.322Z,4.90
2023-02-18T01:10:12.842Z,3.70
2023-02-18T01:10:45.263Z,4.45
2023-02-18T01:11:16.675Z,5.55
2023-02-18T01:11:48.017Z,5.07
2023-02-18T01:12:19.353Z,4.15
2023-02-18T01:12:50.772Z,4.03
2023-02-18T01:13:22.246Z,4.70
2023-02-18T01:13:53.576Z,4.15
2023-02-18T01:14:24.939Z,4.30
2023-02-18T01:14:56.257Z,4.75
2023-02-18T01:15:27.717Z,6.03
2023-02-18T01:15:59.474Z,5.38
2023-02-18T01:16:30.982Z,4.60
2023-02-18T01:17:02.424Z,2.85
2023-02-18T01:17:33.998Z,3.25
2023-02-18T01:18:05.933Z,3.15
2023-02-18T01:18:37.491Z,3.53
2023-02-18T01:19:09.201Z,3.97
2023-02-18T01:19:40.605Z,4.70
2023-02-18T01:20:12.893Z,5.85
2023-02-18T01:20:44.727Z,4.93
2023-02-18T01:21:16.601Z,7.13
2023-02-18T01:21:47.946Z,3.90
2023-02-18T01:22:19.397Z,5.45
2023-02-18T01:22:50.732Z,5.38
2023-02-18T01:23:22.647Z,6.78
2023-02-18T01:23:53.990Z,4.63
2023-02-18T01:24:25.388Z,4.53
2023-02-18T01:24:56.730Z,3.92
2023-02-18T01:25:28.131Z,4.90
2023-02-18T01:25:59.484Z,4.30
2023-02-18T01:26:30.811Z,3.67
2023-02-18T01:27:02.143Z,3.22
2023-02-18T01:27:33.497Z,4.10
2023-02-18T01:28:05.822Z,5.03
2023-02-18T01:28:37.419Z,5.85
2023-02-18T01:29:08.758Z,5.50
2023-02-18T01:29:40.125Z,3.13
2023-02-18T01:30:13.942Z,3.35
2023-02-18T01:30:45.266Z,7.10
2023-02-18T01:31:16.967Z,3.03
2023-02-18T01:31:48.517Z,4.00
2023-02-18T01:32:19.993Z,3.55
2023-02-18T01:32:51.605Z,4.30
2023-02-18T01:33:23.762Z,3.47
2023-02-18T01:33:55.082Z,4.20
2023-02-18T01:34:26.410Z,5.13
2023-02-18T01:34:57.764Z,7.50
2023-02-18T01:35:29.514Z,4.55
2023-02-18T01:36:00.852Z,3.53
2023-02-18T01:36:32.222Z,3.50
2023-02-18T01:37:03.584Z,5.05
2023-02-18T01:37:34.915Z,6.65
2023-02-18T01:38:06.604Z,4.60
2023-02-18T01:38:38.373Z,4.70
2023-02-18T01:39:09.740Z,4.97
2023-02-18T01:39:41.076Z,7.03
2023-02-18T01:40:13.382Z,5.70
2023-02-18T01:40:46.652Z,6.00
2023-02-18T01:41:18.135Z,7.75
2023-02-18T01:41:49.504Z,7.03
2023-02-18T01:42:22.119Z,5.03
2023-02-18T01:42:53.486Z,4.18
2023-02-18T01:43:24.852Z,4.63
2023-02-18T01:44:28.809Z,5.15
2023-02-18T01:45:18.614Z,3.65
2023-02-18T01:45:52.136Z,4.68
2023-02-18T01:46:23.489Z,7.70
2023-02-18T01:46:55.395Z,5.97
2023-02-18T01:47:26.801Z,5.18
2023-02-18T01:47:58.339Z,3.97
2023-02-18T01:48:38.025Z,5.82
2023-02-18T01:49:10.873Z,5.35
2023-02-18T01:49:43.224Z,3.50
2023-02-18T01:50:14.643Z,4.90
2023-02-18T01:50:48.242Z,3.80
2023-02-18T01:51:19.542Z,4.70
2023-02-18T01:51:55.064Z,3.97
2023-02-18T01:52:26.956Z,4.75
2023-02-18T01:52:58.292Z,4.13
2023-02-18T01:53:55.962Z,3.50
2023-02-18T01:54:32.310Z,2.78
2023-02-18T01:55:03.674Z,4.05
2023-02-18T01:55:35.838Z,5.88
2023-02-18T01:56:09.850Z,4.05
2023-02-18T01:56:45.062Z,5.45
2023-02-18T01:57:29.809Z,5.93
2023-02-18T01:58:01.678Z,5.07
2023-02-18T01:58:33.321Z,4.55
2023-02-18T01:59:07.003Z,5.05
2023-02-18T01:59:44.094Z,2.83
2023-02-18T02:00:16.942Z,4.68
2023-02-18T02:00:48.423Z,5.30
2023-02-18T02:01:19.831Z,3.50
2023-02-18T02:01:51.502Z,5.07
2023-02-18T02:02:25.006Z,6.03
2023-02-18T02:02:56.347Z,3.85
2023-02-18T02:03:27.754Z,5.35
2023-02-18T02:03:59.195Z,4.37
2023-02-18T02:04:30.542Z,4.70
2023-02-18T02:05:01.905Z,5.80
2023-02-18T02:05:33.830Z,6.30
2023-02-18T02:06:11.808Z,5.05
2023-02-18T02:06:43.274Z,8.52
2023-02-18T02:07:15.066Z,6.70
2023-02-18T02:07:47.410Z,4.18
2023-02-18T02:08:18.796Z,5.40
2023-02-18T02:08:51.328Z,5.53
2023-02-18T02:09:24.769Z,4.90
2023-02-18T02:09:57.487Z,5.15
2023-02-18T02:10:34.777Z,6.43
2023-02-18T02:11:21.132Z,5.55
2023-02-18T02:11:58.311Z,4.95
2023-02-18T02:12:48.309Z,3.90
2023-02-18T02:13:19.645Z,5.93
2023-02-18T02:13:59.896Z,3.47
2023-02-18T02:14:31.202Z,3.42
2023-02-18T02:15:02.498Z,2.55
2023-02-18T02:15:37.848Z,4.18
2023-02-18T02:16:11.776Z,5.10
2023-02-18T02:16:47.284Z,3.45
2023-02-18T02:17:30.988Z,3.63
2023-02-18T02:18:14.524Z,7.03
2023-02-18T02:18:48.651Z,4.80
2023-02-18T02:19:32.157Z,4.43
2023-02-18T02:20:06.537Z,8.55
2023-02-18T02:20:43.700Z,4.95
2023-02-18T02:21:35.681Z,5.47
2023-02-18T02:22:12.838Z,5.32
2023-02-18T02:22:50.266Z,5.53
2023-02-18T02:23:40.441Z,4.35
2023-02-18T02:24:11.824Z,4.33
2023-02-18T02:24:58.209Z,3.15
2023-02-18T02:25:41.767Z,4.40
2023-02-18T02:26:22.310Z,6.25
2023-02-18T02:26:56.639Z,2.55
2023-02-18T02:27:39.460Z,3.83
2023-02-18T02:28:29.214Z,4.45
2023-02-18T02:29:03.303Z,4.07
2023-02-18T02:29:34.634Z,3.47
2023-02-18T02:30:18.354Z,5.30
2023-02-18T02:31:10.423Z,4.53
2023-02-18T02:32:00.388Z,5.18
2023-02-18T02:32:57.956Z,6.10
2023-02-18T02:33:47.915Z,4.75
2023-02-18T02:34:37.877Z,4.93
2023-02-18T02:35:20.457Z,5.25
2023-02-18T02:35:59.956Z,5.60
2023-02-18T02:36:36.958Z,4.25
2023-02-18T02:37:11.059Z,4.68
2023-02-18T02:37:54.513Z,5.20
2023-02-18T02:38:53.720Z,4.22
2023-02-18T02:39:36.551Z,3.75
2023-02-18T02:40:07.888Z,3.58
2023-02-18T02:40:48.362Z,5.85
2023-02-18T02:41:39.940Z,3.65
2023-02-18T02:42:25.056Z,4.65
2023-02-18T02:43:12.368Z,3.85
2023-02-18T02:44:03.978Z,4.13
2023-02-18T02:44:41.382Z,5.30
2023-02-18T02:45:15.817Z,3.85
2023-02-18T02:46:02.426Z,2.72
2023-02-18T02:46:41.276Z,6.30
2023-02-18T02:47:17.191Z,3.83
2023-02-18T02:47:51.038Z,3.20
2023-02-18T02:48:25.260Z,4.43
2023-02-18T02:49:11.972Z,2.78
2023-02-18T02:49:43.275Z,3.55
2023-02-18T02:50:26.501Z,2.65
2023-02-18T02:51:05.092Z,4.95
2023-02-18T02:52:02.563Z,2.30
2023-02-18T02:52:37.622Z,3.00
2023-02-18T02:53:16.549Z,2.67
2023-02-18T02:53:47.917Z,2.20
2023-02-18T02:54:24.004Z,4.20
2023-02-18T02:54:55.383Z,2.88
2023-02-18T02:55:26.766Z,3.35
2023-02-18T02:55:58.073Z,3.08
2023-02-18T02:56:29.412Z,4.18
2023-02-18T02:57:24.075Z,2.72
2023-02-18T02:57:55.858Z,5.25
2023-02-18T02:58:27.206Z,5.70
2023-02-18T02:59:01.148Z,3.25
2023-02-18T02:59:32.776Z,4.15
2023-02-18T03:00:06.766Z,5.65
2023-02-18T03:00:38.108Z,2.72
2023-02-18T03:01:09.464Z,2.60
2023-02-18T03:01:59.628Z,3.03
2023-02-18T03:02:33.749Z,1.73
2023-02-18T03:03:14.307Z,4.22
2023-02-18T03:03:53.215Z,3.03
2023-02-18T03:04:42.591Z,2.55
2023-02-18T03:05:20.055Z,4.65
2023-02-18T03:06:10.090Z,3.28
2023-02-18T03:06:44.529Z,3.45
2023-02-18T03:07:15.836Z,3.88
2023-02-18T03:08:07.384Z,5.53
2023-02-18T03:08:43.953Z,6.03
2023-02-18T03:09:15.260Z,3.45
2023-02-18T03:09:52.419Z,2.83
2023-02-18T03:10:42.600Z,2.60
2023-02-18T03:11:15.836Z,3.83
2023-02-18T03:12:08.589Z,4.50
2023-02-18T03:12:45.950Z,3.45
2023-02-18T03:13:26.579Z,4.25
2023-02-18T03:13:57.870Z,3.80
2023-02-18T03:14:32.307Z,5.97
2023-02-18T03:15:06.655Z,3.83
2023-02-18T03:15:41.045Z,3.45
2023-02-18T03:16:31.243Z,3.47
2023-02-18T03:17:12.768Z,3.08
2023-02-18T03:17:48.824Z,1.83
2023-02-18T03:18:26.441Z,2.42
2023-02-18T03:19:01.533Z,3.88
2023-02-18T03:19:35.061Z,4.13
2023-02-18T03:20:09.598Z,4.50
2023-02-18T03:20:50.791Z,3.05
2023-02-18T03:21:25.263Z,2.08
2023-02-18T03:22:11.383Z,3.47
2023-02-18T03:22:45.593Z,2.88
2023-02-18T03:23:20.611Z,2.08
2023-02-18T03:24:20.972Z,2.60
2023-02-18T03:24:54.423Z,3.88
2023-02-18T03:25:25.868Z,1.10
2023-02-18T03:25:58.242Z,3.22
2023-02-18T03:26:31.341Z,2.70
2023-02-18T03:27:06.242Z,1.98
2023-02-18T03:27:55.392Z,2.63
2023-02-18T03:28:29.036Z,3.33
2023-02-18T03:29:04.993Z,3.30
2023-02-18T03:29:36.636Z,1.67
2023-02-18T03:30:13.109Z,4.78
2023-02-18T03:30:44.495Z,3.22
2023-02-18T03:31:18.056Z,3.75
2023-02-18T03:31:52.669Z,2.38
2023-02-18T03:32:25.446Z,3.45
2023-02-18T03:32:59.480Z,3.53
2023-02-18T03:33:37.102Z,2.25
2023-02-18T03:34:13.474Z,2.22
2023-02-18T03:34:47.789Z,2.72
2023-02-18T03:35:19.854Z,3.17
2023-02-18T03:35:52.470Z,1.70
2023-02-18T03:36:24.415Z,1.73
2023-02-18T03:36:57.389Z,2.13
2023-02-18T03:37:29.875Z,3.00
2023-02-18T03:38:04.291Z,3.10
2023-02-18T03:38:38.782Z,2.85
2023-02-18T03:39:16.871Z,2.40
2023-02-18T03:39:49.898Z,2.00
2023-02-18T03:40:21.232Z,1.85
2023-02-18T03:40:52.553Z,2.33
2023-02-18T03:41:24.075Z,3.70
2023-02-18T03:41:55.851Z,3.33
2023-02-18T03:42:27.917Z,3.57
2023-02-18T03:42:59.640Z,2.90
2023-02-18T03:43:31.150Z,2.35
2023-02-18T03:44:05.046Z,2.65
2023-02-18T03:44:36.382Z,2.65
2023-02-18T03:45:07.844Z,2.65
2023-02-18T03:45:39.311Z,3.42
2023-02-18T03:46:11.050Z,2.75
2023-02-18T03:46:44.293Z,1.85
2023-02-18T03:47:15.623Z,1.98
2023-02-18T03:47:46.969Z,2.33
2023-02-18T03:48:18.431Z,2.22
2023-02-18T03:48:49.786Z,3.80
2023-02-18T03:49:21.124Z,3.20
2023-02-18T03:49:52.470Z,2.45
2023-02-18T03:50:24.086Z,3.10
2023-02-18T03:50:55.405Z,3.70
2023-02-18T03:51:26.757Z,2.22
2023-02-18T03:51:58.081Z,2.22
2023-02-18T03:52:29.440Z,2.60
2023-02-18T03:53:00.753Z,2.20
2023-02-18T03:53:32.120Z,3.20
2023-02-18T03:54:03.676Z,2.28
2023-02-18T03:54:35.024Z,2.47
2023-02-18T03:55:06.852Z,2.13
2023-02-18T03:55:38.215Z,2.30
2023-02-18T03:56:09.811Z,2.85
2023-02-18T03:56:41.572Z,3.58
2023-02-18T03:57:12.939Z,4.35
2023-02-18T03:57:44.267Z,2.50
2023-02-18T03:58:15.637Z,2.65
2023-02-18T03:58:47.027Z,1.88
2023-02-18T03:59:18.417Z,2.03
2023-02-18T03:59:49.735Z,3.50
2023-02-18T04:00:21.275Z,1.45
2023-02-18T04:00:52.611Z,1.88
2023-02-18T04:01:23.988Z,4.85
2023-02-18T04:01:55.385Z,3.40
2023-02-18T04:02:26.756Z,2.43
2023-02-18T04:02:58.104Z,2.50
2023-02-18T04:03:29.464Z,2.08
2023-02-18T04:04:00.859Z,3.03
2023-02-18T04:04:32.283Z,2.83
2023-02-18T04:05:03.764Z,3.45
2023-02-18T04:05:35.072Z,1.57
2023-02-18T04:06:06.740Z,1.48
2023-02-18T04:06:38.322Z,1.85
2023-02-18T04:07:09.646Z,0.47
2023-02-18T04:07:40.984Z,1.30
2023-02-18T04:08:12.323Z,1.60
2023-02-18T04:08:43.785Z,1.20
2023-02-18T04:09:15.200Z,1.92
2023-02-18T04:09:46.556Z,0.90
2023-02-18T04:10:17.959Z,1.30
2023-02-18T04:10:49.288Z,1.60
2023-02-18T04:11:20.614Z,1.05
2023-02-18T04:11:52.028Z,1.55
2023-02-18T04:12:24.396Z,2.25
2023-02-18T04:12:55.791Z,1.40
2023-02-18T04:13:27.454Z,2.45
2023-02-18T04:13:58.802Z,1.90
2023-02-18T04:14:30.242Z,2.30
2023-02-18T04:15:01.617Z,1.77
2023-02-18T04:15:32.975Z,1.10
2023-02-18T04:16:04.440Z,1.65
2023-02-18T04:16:35.833Z,1.47
2023-02-18T04:17:07.224Z,2.05
2023-02-18T04:17:38.555Z,0.85
2023-02-18T04:18:09.885Z,2.22
2023-02-18T04:18:41.221Z,1.50
2023-02-18T04:19:12.589Z,2.28
2023-02-18T04:19:43.922Z,2.28
2023-02-18T04:20:15.291Z,1.90
2023-02-18T04:20:46.624Z,2.33
2023-02-18T04:21:17.985Z,1.35
2023-02-18T04:21:49.475Z,1.48
2023-02-18T04:22:20.823Z,2.78
2023-02-18T04:22:52.178Z,2.00
2023-02-18T04:23:23.520Z,2.50
2023-02-18T04:23:54.852Z,2.57
2023-02-18T04:24:26.199Z,2.55
2023-02-18T04:24:57.534Z,1.02
2023-02-18T04:25:29.331Z,1.50
2023-02-18T04:26:00.891Z,2.90
2023-02-18T04:26:32.228Z,1.38
2023-02-18T04:27:03.622Z,1.30
2023-02-18T04:27:35.122Z,1.88
2023-02-18T04:28:06.543Z,0.60
2023-02-18T04:28:37.878Z,2.28
2023-02-18T04:29:09.197Z,1.10
2023-02-18T04:29:40.536Z,1.60
2023-02-18T04:30:12.431Z,1.20
2023-02-18T04:30:44.981Z,1.35
2023-02-18T04:31:16.624Z,2.67
2023-02-18T04:31:48.158Z,1.80
2023-02-18T04:32:19.573Z,1.50
2023-02-18T04:32:50.953Z,1.35
2023-02-18T04:33:22.388Z,1.77
2023-02-18T04:33:53.743Z,2.47
2023-02-18T04:34:25.112Z,1.30
2023-02-18T04:34:56.503Z,1.50
2023-02-18T04:35:27.846Z,2.10
2023-02-18T04:35:59.217Z,1.95
2023-02-18T04:36:30.571Z,1.70
2023-02-18T04:37:03.887Z,1.90
2023-02-18T04:37:35.270Z,3.30
2023-02-18T04:38:07.270Z,2.97
2023-02-18T04:38:38.622Z,1.33
2023-02-18T04:39:09.984Z,1.83
2023-02-18T04:39:41.365Z,1.27
2023-02-18T04:40:12.944Z,1.65
2023-02-18T04:40:44.292Z,2.03
2023-02-18T04:41:15.643Z,1.20
2023-02-18T04:41:46.987Z,1.80
2023-02-18T04:42:18.427Z,1.30
2023-02-18T04:42:49.756Z,1.10
2023-02-18T04:43:21.152Z,1.00
2023-02-18T04:43:52.509Z,1.92
2023-02-18T04:44:23.863Z,1.25
2023-02-18T04:44:55.192Z,1.42
2023-02-18T04:45:27.342Z,2.47
2023-02-18T04:45:58.711Z,2.28
2023-02-18T04:46:30.173Z,1.60
2023-02-18T04:47:02.014Z,0.95
2023-02-18T04:47:33.583Z,1.30
2023-02-18T04:48:05.158Z,2.08
2023-02-18T04:48:36.517Z,2.67
2023-02-18T04:49:07.854Z,1.02
2023-02-18T04:49:39.197Z,1.90
2023-02-18T04:50:10.798Z,0.90
2023-02-18T04:50:43.647Z,1.90
2023-02-18T04:51:14.992Z,1.73
2023-02-18T04:51:46.358Z,1.67
2023-02-18T04:52:17.717Z,1.83
2023-02-18T04:52:49.554Z,1.60
2023-02-18T04:53:20.932Z,1.00
2023-02-18T04:53:52.360Z,2.28
2023-02-18T04:54:23.683Z,0.98
2023-02-18T04:54:55.015Z,1.25
2023-02-18T04:55:26.376Z,0.90
2023-02-18T04:55:57.715Z,1.15
2023-02-18T04:56:29.041Z,1.85
2023-02-18T04:57:00.381Z,2.13
2023-02-18T04:57:31.716Z,3.28
2023-02-18T04:58:03.065Z,1.40
2023-02-18T04:58:34.411Z,1.42
2023-02-18T04:59:05.737Z,1.38
2023-02-18T04:59:37.155Z,0.60
2023-02-18T05:00:09.709Z,1.30
2023-02-18T05:00:41.000Z,0.93
2023-02-18T05:01:12.563Z,1.02
2023-02-18T05:01:43.959Z,1.87
2023-02-18T05:02:15.349Z,1.80
2023-02-18T05:02:47.228Z,1.75
2023-02-18T05:03:18.605Z,1.83
2023-02-18T05:03:49.946Z,1.17
2023-02-18T05:04:21.405Z,1.98
2023-02-18T05:04:52.769Z,1.05
2023-02-18T05:05:24.102Z,2.20
2023-02-18T05:05:55.456Z,2.28
2023-02-18T05:06:26.782Z,2.33
2023-02-18T05:06:58.105Z,2.43
2023-02-18T05:07:29.465Z,0.75
2023-02-18T05:08:00.810Z,2.05
2023-02-18T05:08:32.144Z,1.10
2023-02-18T05:09:03.596Z,2.03
2023-02-18T05:09:34.934Z,1.60
2023-02-18T05:10:06.615Z,2.88
2023-02-18T05:10:38.657Z,1.70
2023-02-18T05:11:10.027Z,1.92
2023-02-18T05:11:41.752Z,1.20
2023-02-18T05:12:13.077Z,1.48
2023-02-18T05:12:44.428Z,1.52
2023-02-18T05:13:15.855Z,1.23
2023-02-18T05:13:47.189Z,1.25
2023-02-18T05:14:18.545Z,1.63
2023-02-18T05:14:49.869Z,2.90
2023-02-18T05:15:21.314Z,2.05
2023-02-18T05:15:52.676Z,1.67
2023-02-18T05:16:24.028Z,1.17
2023-02-18T05:16:55.357Z,2.13
2023-02-18T05:17:26.696Z,2.58
2023-02-18T05:17:57.989Z,0.95
2023-02-18T05:18:29.325Z,1.00
2023-02-18T05:19:00.765Z,1.50
2023-02-18T05:19:32.095Z,2.42
2023-02-18T05:20:03.816Z,0.98
2023-02-18T05:20:35.156Z,1.05
2023-02-18T05:21:06.512Z,1.65
2023-02-18T05:21:37.975Z,1.48
2023-02-18T05:22:09.297Z,2.38
2023-02-18T05:22:40.625Z,0.40
2023-02-18T05:23:11.970Z,1.43
2023-02-18T05:23:43.311Z,2.08
2023-02-18T05:24:14.673Z,1.95
2023-02-18T05:24:46.043Z,2.88
2023-02-18T05:25:17.478Z,2.17
2023-02-18T05:25:48.805Z,1.92
2023-02-18T05:26:20.135Z,0.77
2023-02-18T05:26:51.521Z,2.20
2023-02-18T05:27:22.835Z,2.47
2023-02-18T05:27:54.199Z,1.17
2023-02-18T05:28:25.637Z,1.15
2023-02-18T05:28:56.973Z,1.90
2023-02-18T05:29:28.313Z,1.45
2023-02-18T05:29:59.766Z,2.10
2023-02-18T05:30:31.198Z,1.27
2023-02-18T05:31:02.676Z,1.65
2023-02-18T05:31:34.086Z,1.33
2023-02-18T05:32:05.702Z,1.55
2023-02-18T05:32:37.087Z,2.17
2023-02-18T05:33:08.420Z,2.25
2023-02-18T05:33:39.731Z,0.63
2023-02-18T05:34:11.073Z,1.95
2023-02-18T05:34:42.402Z,1.42
2023-02-18T05:35:13.806Z,1.33
2023-02-18T05:35:45.133Z,1.10
2023-02-18T05:36:16.719Z,1.33
2023-02-18T05:36:48.069Z,1.33
2023-02-18T05:37:19.411Z,0.63
2023-02-18T05:37:50.751Z,2.03
2023-02-18T05:38:22.232Z,0.93
2023-02-18T05:38:53.627Z,1.52
2023-02-18T05:39:24.969Z,0.70
2023-02-18T05:39:56.320Z,0.70
2023-02-18T05:40:27.666Z,1.60
2023-02-18T05:40:59.086Z,1.30
2023-02-18T05:41:30.528Z,1.00
2023-02-18T05:42:01.860Z,1.00
2023-02-18T05:42:33.237Z,1.93
2023-02-18T05:43:04.753Z,0.70
2023-02-18T05:43:36.253Z,2.13
2023-02-18T05:44:07.628Z,1.45
2023-02-18T05:44:38.980Z,0.90
2023-02-18T05:45:10.330Z,1.30
2023-02-18T05:45:41.686Z,0.88
2023-02-18T05:46:13.062Z,0.90
2023-02-18T05:46:44.501Z,2.75
2023-02-18T05:47:15.882Z,1.08
2023-02-18T05:47:47.229Z,2.05
2023-02-18T05:48:18.615Z,2.80
2023-02-18T05:48:49.961Z,2.67
2023-02-18T05:49:21.674Z,2.40
2023-02-18T05:49:52.986Z,1.20
2023-02-18T05:50:24.346Z,1.73
2023-02-18T05:50:55.685Z,1.15
2023-02-18T05:51:27.064Z,0.60
2023-02-18T05:51:58.959Z,1.65
2023-02-18T05:52:30.311Z,1.00
2023-02-18T05:53:01.689Z,0.90
2023-02-18T05:53:33.041Z,1.10
2023-02-18T05:54:04.505Z,1.42
2023-02-18T05:54:36.235Z,1.65
2023-02-18T05:55:07.739Z,2.27
2023-02-18T05:55:39.225Z,1.30
2023-02-18T05:56:10.856Z,2.65
2023-02-18T05:56:42.598Z,1.75
2023-02-18T05:57:14.556Z,1.30
2023-02-18T05:57:45.906Z,0.85
2023-02-18T05:58:17.261Z,0.98
2023-02-18T05:58:48.703Z,2.83
2023-02-18T05:59:20.145Z,1.35
2023-02-18T05:59:51.529Z,2.40
2023-02-18T06:00:23.057Z,1.43
2023-02-18T06:00:54.456Z,1.02
2023-02-18T06:01:25.823Z,2.22
2023-02-18T06:01:57.765Z,1.50
2023-02-18T06:02:29.102Z,0.77
2023-02-18T06:03:00.592Z,1.58
2023-02-18T06:03:31.969Z,1.25
2023-02-18T06:04:03.366Z,2.40
2023-02-18T06:04:34.777Z,1.75
2023-02-18T06:05:06.332Z,1.30
2023-02-18T06:05:37.692Z,0.77
2023-02-18T06:06:09.429Z,1.42
2023-02-18T06:06:41.000Z,1.63
2023-02-18T06:07:12.582Z,1.80
2023-02-18T06:07:43.910Z,1.77
2023-02-18T06:08:15.234Z,1.30
2023-02-18T06:08:46.593Z,1.20
2023-02-18T06:09:17.997Z,1.83
2023-02-18T06:09:49.390Z,1.33
2023-02-18T06:10:20.742Z,1.40
2023-02-18T06:10:52.114Z,1.77
2023-02-18T06:11:23.481Z,1.10
2023-02-18T06:11:54.842Z,1.90
2023-02-18T06:12:26.179Z,1.52
2023-02-18T06:12:57.569Z,1.85
2023-02-18T06:13:28.926Z,1.83
2023-02-18T06:14:00.283Z,1.60
2023-02-18T06:14:32.216Z,1.83
2023-02-18T06:15:03.664Z,1.27
2023-02-18T06:15:35.005Z,1.05
2023-02-18T06:16:06.764Z,1.42
2023-02-18T06:16:38.251Z,1.10
2023-02-18T06:17:09.825Z,2.25
2023-02-18T06:17:41.173Z,2.47
2023-02-18T06:18:12.525Z,1.83
2023-02-18T06:18:43.849Z,1.70
2023-02-18T06:19:15.296Z,1.70
2023-02-18T06:19:46.650Z,1.95
2023-02-18T06:20:18.105Z,1.30
2023-02-18T06:20:49.592Z,1.92
2023-02-18T06:21:20.972Z,1.95
2023-02-18T06:21:52.301Z,1.70
2023-02-18T06:22:23.637Z,1.65
2023-02-18T06:22:55.013Z,2.33
2023-02-18T06:23:26.544Z,2.45
2023-02-18T06:23:57.871Z,1.77
2023-02-18T06:24:29.200Z,2.30
2023-02-18T06:25:00.534Z,1.98
2023-02-18T06:25:31.929Z,1.35
2023-02-18T06:26:03.305Z,2.35
2023-02-18T06:26:34.650Z,2.00
2023-02-18T06:27:06.021Z,3.22
2023-02-18T06:27:40.447Z,1.53
2023-02-18T06:28:11.798Z,3.30
2023-02-18T06:28:43.211Z,3.15
2023-02-18T06:29:14.578Z,3.38
2023-02-18T06:29:45.925Z,2.25
2023-02-18T06:30:17.359Z,1.05
2023-02-18T06:30:49.229Z,1.97
2023-02-18T06:31:20.679Z,1.70
2023-02-18T06:31:52.160Z,1.58
2023-02-18T06:32:23.677Z,2.72
2023-02-18T06:32:55.141Z,1.15
2023-02-18T06:33:26.457Z,3.08
2023-02-18T06:33:57.836Z,2.65
2023-02-18T06:34:29.164Z,3.30
2023-02-18T06:35:00.625Z,2.42
2023-02-18T06:35:32.029Z,2.47
2023-02-18T06:36:07.424Z,2.05
2023-02-18T06:36:38.995Z,1.25
2023-02-18T06:37:10.389Z,2.03
2023-02-18T06:37:41.709Z,2.05
2023-02-18T06:38:13.044Z,2.25
2023-02-18T06:38:44.737Z,1.27
2023-02-18T06:39:16.129Z,2.15
2023-02-18T06:39:47.459Z,2.90
2023-02-18T06:40:18.906Z,3.03
2023-02-18T06:40:50.301Z,2.42
2023-02-18T06:41:21.749Z,1.83
2023-02-18T06:41:53.055Z,2.08
2023-02-18T06:42:24.410Z,3.08
2023-02-18T06:42:55.749Z,2.95
2023-02-18T06:43:27.298Z,2.65
2023-02-18T06:43:58.644Z,4.50
2023-02-18T06:44:29.984Z,1.58
2023-02-18T06:45:01.297Z,1.95
2023-02-18T06:45:32.612Z,1.77
2023-02-18T06:46:04.412Z,2.83
2023-02-18T06:46:35.864Z,1.80
2023-02-18T06:47:07.220Z,2.60
2023-02-18T06:47:38.550Z,2.38
2023-02-18T06:48:09.877Z,2.15
2023-02-18T06:48:41.250Z,1.85
2023-02-18T06:49:12.591Z,3.33
2023-02-18T06:49:43.937Z,2.85
2023-02-18T06:50:15.412Z,2.58
2023-02-18T06:50:46.748Z,2.83
2023-02-18T06:51:18.092Z,3.85
2023-02-18T06:51:49.494Z,1.70
2023-02-18T06:52:20.818Z,1.40
2023-02-18T06:52:52.145Z,3.05
2023-02-18T06:53:23.513Z,2.28
2023-02-18T06:53:54.875Z,3.05
2023-02-18T06:54:26.210Z,2.22
2023-02-18T06:54:57.542Z,3.40
2023-02-18T06:55:28.922Z,2.15
2023-02-18T06:56:00.253Z,1.80
2023-02-18T06:56:31.593Z,1.20
2023-02-18T06:57:02.976Z,2.30
2023-02-18T06:57:34.318Z,2.72
2023-02-18T06:58:05.688Z,2.92
2023-02-18T06:58:37.139Z,2.30
2023-02-18T06:59:08.479Z,1.85
2023-02-18T06:59:39.796Z,2.20
2023-02-18T07:00:11.339Z,1.73
2023-02-18T07:00:42.700Z,1.65
2023-02-18T07:01:14.091Z,2.63
2023-02-18T07:01:45.424Z,2.65
2023-02-18T07:02:16.759Z,1.77
2023-02-18T07:02:48.090Z,1.25
2023-02-18T07:03:19.447Z,1.23
2023-02-18T07:03:50.870Z,3.67
2023-02-18T07:04:22.194Z,2.33
2023-02-18T07:04:53.504Z,1.65
2023-02-18T07:05:24.854Z,1.75
2023-02-18T07:05:56.202Z,2.70
2023-02-18T07:06:27.544Z,2.00
2023-02-18T07:06:58.889Z,1.50
2023-02-18T07:07:30.217Z,1.38
2023-02-18T07:08:01.826Z,1.02
2023-02-18T07:08:33.187Z,0.98
2023-02-18T07:09:04.945Z,1.55
2023-02-18T07:09:36.259Z,2.38
2023-02-18T07:10:07.873Z,3.10
2023-02-18T07:10:39.245Z,1.50
2023-02-18T07:11:10.603Z,3.85
2023-02-18T07:11:41.914Z,1.80
2023-02-18T07:12:13.285Z,1.05
2023-02-18T07:12:44.637Z,1.20
2023-02-18T07:13:16.083Z,1.60
2023-02-18T07:13:47.424Z,2.20
2023-02-18T07:14:18.770Z,1.65
2023-02-18T07:14:50.096Z,1.85
2023-02-18T07:15:21.525Z,1.25
2023-02-18T07:15:52.844Z,1.95
2023-02-18T07:16:24.210Z,1.10
2023-02-18T07:16:55.625Z,1.08
2023-02-18T07:17:27.006Z,1.50
2023-02-18T07:17:58.397Z,1.58
2023-02-18T07:18:29.756Z,1.10
2023-02-18T07:19:01.093Z,2.88